Time;durP1;ratioP1;P1;durP2;ratioP2;P2;SDS_P1;SDS_P2;PMS_P1;PMS_P2;Temp;Humidity;BMP_temperature;BMP_pressure;BME280_temperature;BME280_humidity;BME280_pressure;Samples;Min_cycle;Max_cycle;Signal;HPM_P1;HPM_P2
2022/04/29 00:01:22;;;;;;;1.90;1.40;;;17.90;53.00;;;;;;5092875;28;20358;-72
2022/04/29 00:03:48;;;;;;;2.28;1.60;;;17.80;52.90;;;;;;5092527;28;20178;-73
2022/04/29 00:06:14;;;;;;;3.25;1.75;;;17.80;52.90;;;;;;5092054;28;20173;-74
2022/04/29 00:08:40;;;;;;;2.05;1.80;;;17.80;52.90;;;;;;5092346;28;20634;-75
2022/04/29 00:11:06;;;;;;;2.58;1.50;;;17.80;53.00;;;;;;5092869;28;20208;-75
2022/04/29 00:13:32;;;;;;;3.17;1.67;;;17.80;53.00;;;;;;5092029;28;20203;-73
2022/04/29 00:15:57;;;;;;;2.10;1.70;;;17.90;53.10;;;;;;5092299;28;20243;-74
2022/04/29 00:18:23;;;;;;;4.13;1.83;;;17.80;53.00;;;;;;5092252;28;20166;-73
2022/04/29 00:20:49;;;;;;;2.10;1.52;;;17.80;53.00;;;;;;5091261;28;20208;-74
2022/04/29 00:23:14;;;;;;;1.65;1.50;;;17.70;53.00;;;;;;5092423;28;20170;-74
2022/04/29 00:25:40;;;;;;;6.45;2.05;;;17.80;53.00;;;;;;5092092;28;20182;-74
2022/04/29 00:28:06;;;;;;;2.10;1.90;;;17.80;53.00;;;;;;5091877;28;20201;-75
2022/04/29 00:30:31;;;;;;;12.00;2.15;;;17.80;53.00;;;;;;5092542;28;20219;-75
2022/04/29 00:32:57;;;;;;;3.80;1.90;;;17.80;53.00;;;;;;5091997;28;20212;-74
2022/04/29 00:35:23;;;;;;;1.58;1.48;;;17.80;53.00;;;;;;5091685;28;20165;-73
2022/04/29 00:37:53;;;;;;;2.40;1.48;;;17.80;53.10;;;;;;5092119;28;20177;-73
2022/04/29 00:40:24;;;;;;;2.60;1.80;;;17.80;53.00;;;;;;5092588;28;20577;-72
2022/04/29 00:42:49;;;;;;;2.10;1.58;;;17.70;53.00;;;;;;5091975;28;20169;-72
2022/04/29 00:45:16;;;;;;;1.80;1.45;;;17.80;53.10;;;;;;5092148;28;20235;-73
2022/04/29 00:47:42;;;;;;;2.67;1.80;;;17.80;53.10;;;;;;5091471;28;20185;-73
2022/04/29 00:50:08;;;;;;;2.63;1.88;;;17.70;53.00;;;;;;5091818;28;20178;-74
2022/04/29 00:52:35;;;;;;;3.22;1.90;;;17.70;53.10;;;;;;5092136;28;20190;-74
2022/04/29 00:55:07;;;;;;;2.58;1.70;;;17.70;53.10;;;;;;5090443;28;20170;-75
2022/04/29 00:57:56;;;;;;;1.70;1.60;;;17.70;53.10;;;;;;5092333;28;20625;-73
2022/04/29 01:00:22;;;;;;;1.58;1.48;;;17.70;53.10;;;;;;5092059;28;20224;-73
2022/04/29 01:02:52;;;;;;;1.95;1.67;;;17.70;53.10;;;;;;5091173;28;20540;-72
2022/04/29 01:05:19;;;;;;;1.98;1.60;;;17.70;53.00;;;;;;5092337;28;20214;-74
2022/04/29 01:07:46;;;;;;;1.75;1.52;;;17.70;53.10;;;;;;5091986;28;20178;-73
2022/04/29 01:10:12;;;;;;;2.38;1.77;;;17.70;53.20;;;;;;5090664;28;20209;-75
2022/04/29 01:12:42;;;;;;;1.60;1.50;;;17.70;53.20;;;;;;5091824;28;20182;-74
2022/04/29 01:15:20;;;;;;;2.65;1.83;;;17.70;53.20;;;;;;5090891;28;20253;-74
2022/04/29 01:17:46;;;;;;;1.50;1.30;;;17.60;53.10;;;;;;5091247;28;20182;-73
2022/04/29 01:20:15;;;;;;;1.70;1.58;;;17.60;53.00;;;;;;5092042;28;20258;-74
2022/04/29 01:22:41;;;;;;;3.13;1.75;;;17.60;53.10;;;;;;5090976;28;20217;-73
2022/04/29 01:25:07;;;;;;;2.63;1.73;;;17.60;53.10;;;;;;5092190;28;20223;-74
2022/04/29 01:27:32;;;;;;;1.60;1.50;;;17.60;53.10;;;;;;5092124;28;20169;-73
2022/04/29 01:30:09;;;;;;;1.50;1.40;;;17.60;53.00;;;;;;5091334;28;20177;-75
2022/04/29 01:32:35;;;;;;;2.35;1.58;;;17.60;53.00;;;;;;5095580;28;20203;-73
2022/04/29 01:35:01;;;;;;;2.05;1.70;;;17.60;53.10;;;;;;5095696;28;20232;-72
2022/04/29 01:37:26;;;;;;;3.25;1.75;;;17.60;53.10;;;;;;5094714;28;20178;-72
2022/04/29 01:39:52;;;;;;;2.72;1.65;;;17.60;53.10;;;;;;5095162;28;20178;-73
2022/04/29 01:42:17;;;;;;;4.70;1.73;;;17.60;53.10;;;;;;5095297;28;20238;-72
2022/04/29 01:44:45;;;;;;;1.85;1.73;;;17.60;53.10;;;;;;5094273;28;20177;-73
2022/04/29 01:47:11;;;;;;;2.45;1.77;;;17.60;53.10;;;;;;5095438;28;20174;-72
2022/04/29 01:49:36;;;;;;;2.75;1.95;;;17.50;53.10;;;;;;5094935;28;20174;-74
2022/04/29 01:52:02;;;;;;;2.35;1.65;;;17.60;53.10;;;;;;5094201;28;20226;-74
2022/04/29 01:54:27;;;;;;;1.77;1.65;;;17.60;53.00;;;;;;5095200;28;20174;-75
2022/04/29 01:56:53;;;;;;;1.70;1.50;;;17.60;53.10;;;;;;5094876;28;20208;-73
2022/04/29 01:59:19;;;;;;;2.60;1.80;;;17.60;53.10;;;;;;5094134;28;20263;-73
2022/04/29 02:01:44;;;;;;;1.60;1.50;;;17.60;53.10;;;;;;5094734;28;20255;-72
2022/04/29 02:04:10;;;;;;;1.90;1.65;;;17.60;53.10;;;;;;5095038;28;20254;-73
2022/04/29 02:06:37;;;;;;;2.28;1.77;;;17.60;53.10;;;;;;5093929;28;20192;-75
2022/04/29 02:09:03;;;;;;;1.60;1.50;;;17.60;53.10;;;;;;5094901;28;20173;-75
2022/04/29 02:11:29;;;;;;;1.80;1.70;;;17.50;53.10;;;;;;5094619;28;20580;-75
2022/04/29 02:13:54;;;;;;;1.77;1.67;;;17.50;53.10;;;;;;5093627;28;20661;-74
2022/04/29 02:16:20;;;;;;;3.20;1.60;;;17.50;53.10;;;;;;5094908;28;20219;-74
2022/04/29 02:18:45;;;;;;;1.70;1.60;;;17.50;53.10;;;;;;5094294;28;20182;-74
2022/04/29 02:21:11;;;;;;;1.52;1.42;;;17.50;53.10;;;;;;5093487;28;20680;-74
2022/04/29 02:23:36;;;;;;;2.60;1.80;;;17.50;53.10;;;;;;5093012;28;20177;-73
2022/04/29 02:26:02;;;;;;;2.65;2.15;;;17.50;53.20;;;;;;5092649;28;20252;-74
2022/04/29 02:28:27;;;;;;;1.85;1.63;;;17.50;53.10;;;;;;5093554;28;20219;-75
2022/04/29 02:30:56;;;;;;;2.65;1.80;;;17.50;53.20;;;;;;5093142;28;20170;-74
2022/04/29 02:33:22;;;;;;;2.17;1.50;;;17.50;53.10;;;;;;5092616;28;20181;-72
2022/04/29 02:35:48;;;;;;;2.05;1.88;;;17.50;53.10;;;;;;5093012;28;20173;-73
2022/04/29 02:38:14;;;;;;;3.25;2.15;;;17.50;53.20;;;;;;5093154;28;20261;-74
2022/04/29 02:40:39;;;;;;;2.22;1.73;;;17.50;53.20;;;;;;5092006;28;20205;-73
2022/04/29 02:43:05;;;;;;;2.75;1.58;;;17.50;53.10;;;;;;5092886;28;20468;-72
2022/04/29 02:45:30;;;;;;;2.60;1.75;;;17.50;53.20;;;;;;5092948;28;20185;-73
2022/04/29 02:47:56;;;;;;;2.13;1.70;;;17.30;53.10;;;;;;5092159;28;20170;-73
2022/04/29 02:50:24;;;;;;;2.30;1.90;;;17.50;53.20;;;;;;5093049;28;20264;-75
2022/04/29 02:52:50;;;;;;;2.50;1.70;;;17.50;53.20;;;;;;5092634;28;20178;-74
2022/04/29 02:55:15;;;;;;;2.35;2.03;;;17.50;53.10;;;;;;5091840;28;20314;-75
2022/04/29 02:57:41;;;;;;;2.50;1.58;;;17.40;53.10;;;;;;5092363;28;20219;-73
2022/04/29 03:00:07;;;;;;;1.58;1.42;;;17.40;53.10;;;;;;5092809;28;20174;-72
2022/04/29 03:02:32;;;;;;;2.67;2.03;;;17.40;53.10;;;;;;5091957;28;20266;-73
2022/04/29 03:04:58;;;;;;;2.30;1.90;;;17.40;53.10;;;;;;5092335;28;20650;-73
2022/04/29 03:07:23;;;;;;;1.88;1.77;;;17.40;53.10;;;;;;5092453;28;20261;-75
2022/04/29 03:09:49;;;;;;;1.83;1.73;;;17.40;53.20;;;;;;5091404;28;20231;-75
2022/04/29 03:12:15;;;;;;;2.10;1.90;;;17.40;53.20;;;;;;5092546;28;20261;-76
2022/04/29 03:14:41;;;;;;;2.20;1.63;;;17.40;53.20;;;;;;5092217;28;20201;-74
2022/04/29 03:18:17;;;;;;;1.85;1.67;;;17.40;53.10;;;;;;5091787;28;20197;-76
2022/04/29 03:19:55;;;;;;;1.98;1.60;;;17.30;53.10;;;;;;5091870;28;20185;-75
2022/04/29 03:22:20;;;;;;;1.80;1.70;;;17.40;53.20;;;;;;5091443;28;20532;-75
2022/04/29 03:24:46;;;;;;;2.63;1.77;;;17.40;53.20;;;;;;5091560;28;20226;-75
2022/04/29 03:27:11;;;;;;;1.80;1.70;;;17.40;53.20;;;;;;5092178;28;20210;-76
2022/04/29 03:29:37;;;;;;;3.38;1.90;;;17.40;53.20;;;;;;5091182;28;20222;-75
2022/04/29 03:32:03;;;;;;;2.10;1.88;;;17.40;53.30;;;;;;5092212;28;20170;-75
2022/04/29 03:34:28;;;;;;;2.70;1.80;;;17.40;53.20;;;;;;5091926;28;20215;-73
2022/04/29 03:36:54;;;;;;;1.63;1.52;;;17.40;53.20;;;;;;5090865;28;20177;-75
2022/04/29 03:39:19;;;;;;;2.72;2.10;;;17.30;53.20;;;;;;5091880;28;20261;-74
2022/04/29 03:41:45;;;;;;;3.22;2.15;;;17.30;53.20;;;;;;5091722;28;20217;-74
2022/04/29 03:44:11;;;;;;;2.15;1.80;;;17.30;53.20;;;;;;5091254;28;20173;-74
2022/04/29 03:46:36;;;;;;;3.15;2.05;;;17.30;53.20;;;;;;5091518;28;20169;-75
2022/04/29 03:51:46;;;;;;;3.47;2.35;;;17.30;53.20;;;;;;5090828;28;20211;-76
2022/04/29 03:54:11;;;;;;;2.38;1.70;;;17.30;53.20;;;;;;5090747;28;20173;-75
2022/04/29 03:56:37;;;;;;;2.17;1.92;;;17.30;53.20;;;;;;5091565;28;20589;-76
2022/04/29 03:59:02;;;;;;;1.90;1.75;;;17.30;53.20;;;;;;5090801;28;20260;-75
2022/04/29 04:01:29;;;;;;;2.95;1.80;;;17.30;53.20;;;;;;5091488;28;20240;-74
2022/04/29 04:03:55;;;;;;;2.00;1.80;;;17.30;53.20;;;;;;5091189;28;20386;-74
2022/04/29 04:09:04;;;;;;;1.55;1.45;;;17.30;53.30;;;;;;5091544;28;20172;-76
2022/04/29 04:11:30;;;;;;;1.60;1.50;;;17.30;53.20;;;;;;5090727;28;20260;-76
2022/04/29 04:13:56;;;;;;;2.25;1.85;;;17.20;53.20;;;;;;5091234;28;20192;-74
2022/04/29 04:16:24;;;;;;;2.35;2.00;;;17.30;53.20;;;;;;5091301;28;20237;-76
2022/04/29 04:18:49;;;;;;;3.58;1.92;;;17.20;53.20;;;;;;5090342;28;20204;-74
2022/04/29 04:21:15;;;;;;;1.70;1.60;;;17.30;53.20;;;;;;5091197;28;20249;-74
2022/04/29 04:23:40;;;;;;;1.98;1.85;;;17.20;53.20;;;;;;5090972;28;20219;-74
2022/04/29 04:26:06;;;;;;;2.10;1.90;;;17.20;53.20;;;;;;5090679;28;20228;-74
2022/04/29 04:28:31;;;;;;;2.03;1.83;;;17.20;53.20;;;;;;5091403;28;20185;-76
2022/04/29 04:30:57;;;;;;;2.08;1.90;;;17.20;53.20;;;;;;5091316;28;20173;-76
2022/04/29 04:33:22;;;;;;;2.03;1.83;;;17.20;53.20;;;;;;5090514;28;20182;-73
2022/04/29 04:35:48;;;;;;;2.67;2.10;;;17.20;53.20;;;;;;5091132;28;20553;-73
2022/04/29 04:38:14;;;;;;;2.92;1.90;;;17.20;53.20;;;;;;5091450;28;20303;-73
2022/04/29 04:40:40;;;;;;;2.50;1.65;;;17.20;53.20;;;;;;5090260;28;20660;-73
2022/04/29 04:43:06;;;;;;;1.95;1.75;;;17.20;53.20;;;;;;5091183;28;20578;-73
2022/04/29 04:45:31;;;;;;;4.70;1.92;;;17.20;53.20;;;;;;5091315;28;20169;-74
2022/04/29 04:47:57;;;;;;;2.75;1.80;;;17.20;53.20;;;;;;5090241;28;20181;-74
2022/04/29 04:50:22;;;;;;;4.07;1.85;;;17.20;53.30;;;;;;5091408;28;20253;-74
2022/04/29 04:52:48;;;;;;;2.53;2.10;;;17.20;53.10;;;;;;5090689;28;20185;-75
2022/04/29 04:55:13;;;;;;;2.13;1.92;;;17.20;53.20;;;;;;5090386;28;20679;-75
2022/04/29 04:57:39;;;;;;;2.67;1.98;;;17.20;53.20;;;;;;5090784;28;20297;-74
2022/04/29 05:00:05;;;;;;;1.90;1.70;;;17.20;53.20;;;;;;5090977;28;20531;-73
2022/04/29 05:02:30;;;;;;;1.80;1.70;;;17.20;53.20;;;;;;5090271;28;20660;-72
2022/04/29 05:04:57;;;;;;;3.35;1.90;;;17.20;53.10;;;;;;5091481;28;20190;-74
2022/04/29 05:07:22;;;;;;;2.30;1.77;;;17.20;53.20;;;;;;5094954;28;20578;-73
2022/04/29 05:09:48;;;;;;;2.00;1.75;;;17.20;53.20;;;;;;5093939;28;20166;-75
2022/04/29 05:12:14;;;;;;;1.75;1.65;;;17.20;53.30;;;;;;5095050;28;20197;-75
2022/04/29 05:14:39;;;;;;;2.42;1.88;;;17.20;53.20;;;;;;5094742;28;20170;-74
2022/04/29 05:17:05;;;;;;;2.15;1.75;;;17.20;53.20;;;;;;5094067;28;20535;-74
2022/04/29 05:19:30;;;;;;;1.75;1.50;;;17.20;53.30;;;;;;5094806;28;20170;-75
2022/04/29 05:21:56;;;;;;;2.78;1.90;;;17.20;53.20;;;;;;5093405;28;20214;-74
2022/04/29 05:24:21;;;;;;;3.20;1.70;;;17.20;53.80;;;;;;5094931;28;20185;-75
2022/04/29 05:26:50;;;;;;;2.50;1.80;;;17.20;53.20;;;;;;5094319;28;20173;-75
2022/04/29 05:29:15;;;;;;;2.30;2.10;;;17.20;53.10;;;;;;5093806;28;20675;-74
2022/04/29 05:31:41;;;;;;;2.33;2.10;;;17.20;53.20;;;;;;5094069;28;20178;-72
2022/04/29 05:34:06;;;;;;;1.92;1.80;;;17.20;53.30;;;;;;5094484;28;20177;-73
2022/04/29 05:36:34;;;;;;;2.38;2.17;;;17.20;53.30;;;;;;5092786;28;20176;-73
2022/04/29 05:44:27;;;;;;;2.22;1.65;;;17.20;53.20;;;;;;5092875;28;20195;-72
2022/04/29 05:46:53;;;;;;;2.63;1.73;;;17.20;53.20;;;;;;5094553;28;20174;-72
2022/04/29 05:49:18;;;;;;;2.20;1.70;;;17.20;53.30;;;;;;5094615;28;20199;-73
2022/04/29 05:51:44;;;;;;;2.80;2.00;;;17.20;53.30;;;;;;5093456;28;20609;-74
2022/04/29 05:54:09;;;;;;;2.00;1.80;;;17.20;53.90;;;;;;5094478;28;20201;-73
2022/04/29 05:56:35;;;;;;;2.35;2.15;;;17.20;53.30;;;;;;5094190;28;20319;-74
2022/04/29 05:59:00;;;;;;;2.00;1.85;;;17.20;53.30;;;;;;5093408;28;20221;-73
2022/04/29 06:01:26;;;;;;;1.98;1.73;;;17.20;53.30;;;;;;5094229;28;20256;-72
2022/04/29 06:03:51;;;;;;;1.92;1.60;;;17.20;53.30;;;;;;5094115;28;20196;-72
2022/04/29 06:06:20;;;;;;;2.28;2.05;;;17.20;53.20;;;;;;5093570;28;20655;-74
2022/04/29 06:08:45;;;;;;;1.80;1.70;;;17.20;53.30;;;;;;5093650;28;20186;-75
2022/04/29 06:11:11;;;;;;;2.63;1.80;;;17.20;53.20;;;;;;5093546;28;20199;-75
2022/04/29 06:13:38;;;;;;;1.88;1.63;;;17.20;53.30;;;;;;5093997;28;20181;-74
2022/04/29 06:16:05;;;;;;;1.95;1.60;;;17.20;53.30;;;;;;5093996;28;20174;-73
2022/04/29 06:18:32;;;;;;;2.25;1.73;;;17.20;53.30;;;;;;5092448;28;20591;-74
2022/04/29 06:21:04;;;;;;;1.90;1.75;;;17.20;53.30;;;;;;5093689;28;20231;-74
2022/04/29 06:23:29;;;;;;;2.20;1.98;;;17.20;53.30;;;;;;5093818;28;20352;-74
2022/04/29 06:25:55;;;;;;;2.55;1.98;;;17.20;53.30;;;;;;5092908;28;20543;-74
2022/04/29 06:28:20;;;;;;;2.25;1.75;;;17.20;53.20;;;;;;5094039;28;20170;-72
2022/04/29 06:30:46;;;;;;;2.78;2.20;;;17.20;53.90;;;;;;5093421;28;20536;-72
2022/04/29 06:33:11;;;;;;;3.30;2.10;;;17.20;53.20;;;;;;5093141;28;20288;-72
2022/04/29 06:35:38;;;;;;;2.05;1.80;;;17.20;53.20;;;;;;5093494;28;20174;-72
2022/04/29 06:38:04;;;;;;;2.83;1.90;;;17.20;53.00;;;;;;5093630;28;20189;-71
2022/04/29 06:40:29;;;;;;;2.25;1.70;;;17.30;53.20;;;;;;5092824;28;20694;-74
2022/04/29 06:42:55;;;;;;;3.80;1.92;;;17.30;53.00;;;;;;5093469;28;20166;-72
2022/04/29 06:45:20;;;;;;;2.15;1.92;;;17.30;53.00;;;;;;5093318;28;20198;-75
2022/04/29 06:47:46;;;;;;;3.38;2.00;;;17.40;53.00;;;;;;5092651;28;20265;-74
2022/04/29 06:50:11;;;;;;;2.90;1.90;;;17.40;53.00;;;;;;5093501;28;20174;-75
2022/04/29 06:52:37;;;;;;;3.47;1.98;;;17.40;53.00;;;;;;5093091;28;20497;-76
2022/04/29 06:55:03;;;;;;;1.60;1.50;;;17.40;52.90;;;;;;5092725;28;20177;-75
2022/04/29 06:57:30;;;;;;;2.15;1.90;;;17.40;52.90;;;;;;5093463;28;20269;-75
2022/04/29 06:59:56;;;;;;;4.10;1.92;;;17.40;52.90;;;;;;5093050;28;20664;-73
2022/04/29 07:02:22;;;;;;;2.47;1.70;;;17.40;52.90;;;;;;5092619;28;20348;-74
2022/04/29 07:04:47;;;;;;;3.80;2.85;;;17.40;52.70;;;;;;5093044;28;20169;-72
2022/04/29 07:07:16;;;;;;;3.45;1.90;;;17.40;52.50;;;;;;5092946;28;20533;-74
2022/04/29 07:09:43;;;;;;;4.50;2.10;;;17.40;52.50;;;;;;5093062;28;20193;-71
2022/04/29 07:12:09;;;;;;;4.28;2.17;;;17.40;52.50;;;;;;5093417;28;20193;-71
2022/04/29 07:14:35;;;;;;;2.92;2.05;;;17.40;52.60;;;;;;5092307;28;20174;-72
2022/04/29 07:17:00;;;;;;;5.78;2.15;;;17.40;52.60;;;;;;5093057;28;20550;-71
2022/04/29 07:19:26;;;;;;;2.35;2.15;;;17.50;52.60;;;;;;5093281;28;20181;-69
2022/04/29 07:21:51;;;;;;;2.25;1.80;;;17.50;52.70;;;;;;5091823;28;20322;-70
2022/04/29 07:24:18;;;;;;;2.72;2.00;;;17.50;52.80;;;;;;5092736;28;20303;-70
2022/04/29 07:26:44;;;;;;;3.35;1.98;;;17.50;52.80;;;;;;5092541;28;20169;-69
2022/04/29 07:29:09;;;;;;;7.32;2.20;;;17.60;52.70;;;;;;5091841;28;20181;-69
2022/04/29 07:31:35;;;;;;;5.85;2.03;;;17.60;52.60;;;;;;5092448;28;20195;-70
2022/04/29 07:34:00;;;;;;;4.88;1.95;;;17.60;52.80;;;;;;5092628;28;20182;-70
2022/04/29 07:41:54;;;;;;;6.55;2.20;;;17.60;52.80;;;;;;5092033;28;20637;-68
2022/04/29 07:44:19;;;;;;;5.45;1.88;;;17.60;52.70;;;;;;5091268;28;20178;-69
2022/04/29 07:46:46;;;;;;;6.55;2.65;;;17.60;52.90;;;;;;5091644;28;20197;-69
2022/04/29 07:49:12;;;;;;;3.45;1.90;;;17.70;52.70;;;;;;5092026;28;20178;-68
2022/04/29 07:51:37;;;;;;;5.22;2.00;;;17.70;52.90;;;;;;5091311;28;20188;-68
2022/04/29 07:54:04;;;;;;;5.85;2.30;;;17.80;52.90;;;;;;5092364;28;20174;-68
2022/04/29 07:56:30;;;;;;;6.30;1.98;;;17.80;52.90;;;;;;5091363;28;20181;-69
2022/04/29 07:58:56;;;;;;;5.80;2.30;;;17.80;52.90;;;;;;5091535;28;20233;-69
2022/04/29 08:01:21;;;;;;;4.30;1.92;;;17.90;52.90;;;;;;5091961;28;20289;-69
2022/04/29 08:03:50;;;;;;;4.82;2.05;;;17.80;52.90;;;;;;5090840;28;20960;-69
2022/04/29 08:06:16;;;;;;;3.75;1.92;;;17.90;52.90;;;;;;5091661;28;20556;-69
2022/04/29 08:08:42;;;;;;;4.15;2.33;;;17.90;52.90;;;;;;5091166;28;20177;-68
2022/04/29 08:11:10;;;;;;;3.50;1.75;;;17.90;52.80;;;;;;5090781;28;20231;-68
2022/04/29 08:13:36;;;;;;;4.15;1.73;;;18.00;52.80;;;;;;5088251;28;20173;-69
2022/04/29 08:16:02;;;;;;;5.85;1.80;;;18.00;52.80;;;;;;5091290;28;20226;-68
2022/04/29 08:18:31;;;;;;;4.43;1.63;;;18.00;52.80;;;;;;5090809;28;20178;-69
2022/04/29 08:20:57;;;;;;;4.93;2.22;;;18.00;52.80;;;;;;5091280;28;20202;-69
2022/04/29 08:23:23;;;;;;;5.28;1.60;;;18.00;52.90;;;;;;5091361;28;20217;-68
2022/04/29 08:25:48;;;;;;;3.13;1.90;;;18.10;52.90;;;;;;5090569;28;20612;-68
2022/04/29 08:28:13;;;;;;;2.95;1.70;;;18.10;52.90;;;;;;5091046;28;20177;-67
2022/04/29 08:30:39;;;;;;;1.92;1.55;;;18.10;52.90;;;;;;5090640;28;20223;-68
2022/04/29 08:33:05;;;;;;;4.30;1.95;;;18.10;52.90;;;;;;5090700;28;20624;-68
2022/04/29 08:35:31;;;;;;;4.75;1.80;;;18.10;52.90;;;;;;5091171;28;20166;-75
2022/04/29 08:38:00;;;;;;;4.43;1.85;;;18.10;53.00;;;;;;5091131;28;20212;-69
2022/04/29 08:40:25;;;;;;;2.00;1.70;;;18.10;52.90;;;;;;5091944;28;20225;-69
2022/04/29 08:42:51;;;;;;;2.85;1.75;;;18.10;53.00;;;;;;5094932;28;20259;-69
2022/04/29 08:45:17;;;;;;;3.95;1.88;;;18.10;53.10;;;;;;5096124;28;20166;-68
2022/04/29 08:47:44;;;;;;;3.63;2.10;;;18.20;53.10;;;;;;5094988;28;20178;-68
2022/04/29 08:50:20;;;;;;;3.72;1.90;;;18.20;53.10;;;;;;5095776;28;20185;-69
2022/04/29 08:52:45;;;;;;;5.63;1.95;;;18.20;53.20;;;;;;5094891;28;20173;-68
2022/04/29 09:00:43;;;;;;;3.38;1.55;;;18.20;53.00;;;;;;5094589;28;20217;-69
2022/04/29 09:03:13;;;;;;;3.75;1.90;;;18.30;53.00;;;;;;5095496;28;20715;-70
2022/04/29 09:05:39;;;;;;;2.05;1.75;;;18.30;52.90;;;;;;5095269;28;20174;-69
2022/04/29 09:08:05;;;;;;;3.92;1.98;;;18.30;52.90;;;;;;5094692;28;20188;-68
2022/04/29 09:10:35;;;;;;;2.40;1.55;;;18.40;52.90;;;;;;5095431;28;20528;-72
2022/04/29 09:13:13;;;;;;;4.40;1.92;;;18.30;53.00;;;;;;5095727;28;20339;-71
2022/04/29 09:15:59;;;;;;;5.75;2.75;;;18.40;53.00;;;;;;5094369;28;20195;-74
2022/04/29 09:18:42;;;;;;;3.70;1.65;;;18.30;53.00;;;;;;5096234;28;20644;-76
2022/04/29 09:21:12;;;;;;;3.30;1.85;;;18.40;53.00;;;;;;5094416;28;20586;-75
2022/04/29 09:23:54;;;;;;;3.90;1.90;;;18.40;52.80;;;;;;5094768;28;20501;-68
2022/04/29 09:26:21;;;;;;;3.65;2.10;;;18.50;53.00;;;;;;5095183;28;20188;-68
2022/04/29 09:28:47;;;;;;;4.95;1.90;;;18.50;53.00;;;;;;5094047;28;20633;-73
2022/04/29 09:31:14;;;;;;;5.03;2.22;;;18.60;53.00;;;;;;5094939;28;20215;-68
2022/04/29 09:33:40;;;;;;;7.50;1.88;;;18.50;53.00;;;;;;5094875;28;20174;-68
2022/04/29 09:36:05;;;;;;;8.45;2.05;;;18.50;53.10;;;;;;5093075;28;20178;-68
2022/04/29 09:41:23;;;;;;;4.90;1.98;;;18.50;53.20;;;;;;5094877;28;20208;-67
2022/04/29 09:43:48;;;;;;;7.57;2.30;;;18.60;53.20;;;;;;5093748;28;20644;-68
2022/04/29 09:46:22;;;;;;;6.03;2.10;;;18.60;53.10;;;;;;5095080;28;20181;-68
2022/04/29 09:48:56;;;;;;;3.53;1.83;;;18.60;53.10;;;;;;5094527;28;20193;-68
2022/04/29 09:51:50;;;;;;;5.47;1.80;;;18.60;53.20;;;;;;5093984;28;20165;-68
2022/04/29 09:54:30;;;;;;;3.63;1.60;;;18.60;53.20;;;;;;5094577;28;20178;-68
2022/04/29 09:57:08;;;;;;;5.57;2.10;;;18.60;53.30;;;;;;5093458;28;20655;-69
2022/04/29 09:59:35;;;;;;;4.70;1.75;;;18.60;53.40;;;;;;5094604;28;20217;-69
2022/04/29 10:02:04;;;;;;;3.28;1.80;;;18.60;53.30;;;;;;5094443;28;20241;-72
2022/04/29 10:04:31;;;;;;;4.88;2.05;;;18.60;53.30;;;;;;5093720;28;20174;-70
2022/04/29 10:06:56;;;;;;;4.97;2.30;;;18.60;53.30;;;;;;5094379;28;20264;-69
2022/04/29 10:09:22;;;;;;;4.03;1.70;;;18.70;53.30;;;;;;5093321;28;20580;-68
2022/04/29 10:11:48;;;;;;;3.60;1.52;;;18.70;53.30;;;;;;5092182;28;20193;-69
2022/04/29 10:14:14;;;;;;;3.50;2.00;;;18.60;53.30;;;;;;5093305;28;20182;-69
2022/04/29 10:16:39;;;;;;;4.35;1.98;;;18.70;53.40;;;;;;5093989;28;20177;-69
2022/04/29 10:21:52;;;;;;;3.50;1.65;;;18.70;53.40;;;;;;5092839;28;20300;-69
2022/04/29 10:24:18;;;;;;;2.35;1.70;;;18.70;53.30;;;;;;5075483;28;20246;-69
2022/04/29 10:26:44;;;;;;;2.85;1.73;;;18.70;53.30;;;;;;5093758;28;20190;-69
2022/04/29 10:29:09;;;;;;;5.68;2.22;;;18.70;53.40;;;;;;5075941;28;20216;-72
2022/04/29 10:31:35;;;;;;;6.45;1.88;;;18.70;53.40;;;;;;5074812;28;20174;-68
2022/04/29 10:34:29;;;;;;;2.92;1.52;;;18.70;53.40;;;;;;5094225;28;20174;-72
2022/04/29 10:36:55;;;;;;;2.97;1.58;;;18.70;53.40;;;;;;5093614;28;20246;-69
2022/04/29 10:39:21;;;;;;;4.70;1.80;;;18.70;53.40;;;;;;5092989;28;20181;-70
2022/04/29 10:42:00;;;;;;;2.58;2.00;;;18.70;53.40;;;;;;5093402;28;20213;-72
2022/04/29 10:44:25;;;;;;;6.57;1.90;;;18.60;53.30;;;;;;5094236;28;20202;-73
2022/04/29 10:46:50;;;;;;;4.57;1.98;;;18.70;53.40;;;;;;5091396;28;20568;-74
2022/04/29 10:49:27;;;;;;;2.45;1.58;;;18.60;53.30;;;;;;5093655;28;20273;-72
2022/04/29 10:52:02;;;;;;;2.83;1.73;;;18.60;54.00;;;;;;5093276;28;20201;-73
2022/04/29 10:54:41;;;;;;;2.05;1.83;;;18.50;53.30;;;;;;5092872;28;20182;-71
2022/04/29 10:57:08;;;;;;;5.95;2.20;;;18.60;53.40;;;;;;5093563;28;20181;-73
2022/04/29 11:00:00;;;;;;;3.25;1.83;;;18.50;53.40;;;;;;5092617;28;20557;-72
2022/04/29 11:02:30;;;;;;;5.72;1.95;;;18.50;53.60;;;;;;5093346;28;20279;-72
2022/04/29 11:04:56;;;;;;;8.43;2.38;;;18.50;53.60;;;;;;5093073;28;20329;-71
2022/04/29 11:07:44;;;;;;;11.52;2.05;;;18.50;53.60;;;;;;5092935;28;20547;-70
2022/04/29 11:10:20;;;;;;;4.47;1.75;;;18.50;53.60;;;;;;5093577;28;20602;-68
2022/04/29 11:12:56;;;;;;;3.35;1.75;;;18.50;53.60;;;;;;5093234;28;20341;-69
2022/04/29 11:15:23;;;;;;;4.55;2.13;;;18.60;53.60;;;;;;5092595;28;20174;-69
2022/04/29 11:17:49;;;;;;;3.55;1.70;;;18.60;54.20;;;;;;5093231;28;20178;-70
2022/04/29 11:20:17;;;;;;;2.72;1.63;;;18.60;53.60;;;;;;5092838;28;20177;-70
2022/04/29 11:25:52;;;;;;;2.60;1.80;;;18.60;53.60;;;;;;5092749;28;20181;-70
2022/04/29 11:28:18;;;;;;;6.15;2.22;;;18.60;53.70;;;;;;5092400;28;20172;-68
2022/04/29 11:30:44;;;;;;;6.40;2.30;;;18.60;53.70;;;;;;5092720;28;20166;-69
2022/04/29 11:33:10;;;;;;;7.32;1.85;;;18.60;53.70;;;;;;5092839;28;20174;-69
2022/04/29 11:35:35;;;;;;;5.10;1.70;;;18.60;53.70;;;;;;5091831;28;20204;-70
2022/04/29 11:38:01;;;;;;;4.95;2.00;;;18.60;53.60;;;;;;5092590;28;20173;-70
2022/04/29 11:40:29;;;;;;;5.75;2.08;;;18.70;53.60;;;;;;5092410;28;20172;-66
2022/04/29 11:42:54;;;;;;;3.55;1.55;;;18.70;53.60;;;;;;5091427;28;20957;-69
2022/04/29 11:45:23;;;;;;;5.18;1.73;;;18.70;53.60;;;;;;5092197;28;20173;-68
2022/04/29 11:47:48;;;;;;;3.35;1.70;;;18.70;53.60;;;;;;5091900;28;20514;-70
2022/04/29 11:50:14;;;;;;;5.43;1.92;;;18.70;53.70;;;;;;5090596;28;20170;-65
2022/04/29 11:52:39;;;;;;;6.32;2.13;;;18.70;53.70;;;;;;5090888;28;20169;-68
2022/04/29 11:55:12;;;;;;;3.55;1.90;;;18.70;53.70;;;;;;5092571;28;20170;-68
2022/04/29 11:57:49;;;;;;;5.82;1.83;;;18.70;53.70;;;;;;5091155;28;20660;-68
2022/04/29 12:00:22;;;;;;;4.57;1.80;;;18.70;53.60;;;;;;5092529;28;20186;-70
2022/04/29 12:02:48;;;;;;;3.30;1.95;;;18.70;53.70;;;;;;5091314;28;20277;-71
2022/04/29 12:05:17;;;;;;;3.97;1.65;;;18.70;53.70;;;;;;5092047;28;20261;-70
2022/04/29 12:07:43;;;;;;;4.35;2.03;;;18.70;53.70;;;;;;5092027;28;20269;-68
2022/04/29 12:10:18;;;;;;;3.70;2.28;;;18.70;53.70;;;;;;5091206;28;20656;-68
2022/04/29 12:12:46;;;;;;;3.47;1.40;;;18.60;53.60;;;;;;5091716;28;20585;-73
2022/04/29 12:15:12;;;;;;;5.38;1.60;;;18.60;53.60;;;;;;5091362;28;20214;-74
2022/04/29 12:17:38;;;;;;;5.30;2.10;;;18.60;53.70;;;;;;5089938;28;20185;-74
2022/04/29 12:20:06;;;;;;;4.07;1.80;;;18.60;53.70;;;;;;5091966;28;20265;-73
2022/04/29 12:22:33;;;;;;;2.88;1.77;;;18.60;53.70;;;;;;5092104;28;20217;-74
2022/04/29 12:25:27;;;;;;;4.20;1.90;;;18.50;53.70;;;;;;5091009;28;20218;-72
2022/04/29 12:28:19;;;;;;;4.07;2.10;;;18.50;53.70;;;;;;5091654;28;20227;-71
2022/04/29 12:37:06;;;;;;;2.80;1.70;;;18.60;53.70;;;;;;5091734;28;20252;-72
2022/04/29 12:39:47;;;;;;;3.58;1.80;;;18.60;53.60;;;;;;5091150;28;20188;-73
2022/04/29 12:42:14;;;;;;;3.00;1.70;;;18.60;53.60;;;;;;5091951;28;20560;-72
2022/04/29 12:47:49;;;;;;;3.65;1.85;;;18.60;53.60;;;;;;5091293;28;20219;-75
2022/04/29 12:50:51;;;;;;;4.15;1.63;;;18.70;53.60;;;;;;5091453;28;20532;-70
2022/04/29 12:53:17;;;;;;;5.43;1.67;;;18.70;53.60;;;;;;5091017;28;20230;-68
2022/04/29 12:55:42;;;;;;;3.42;1.60;;;18.70;53.40;;;;;;5091292;28;20184;-68
2022/04/29 12:58:12;;;;;;;3.58;1.92;;;18.70;53.60;;;;;;5091390;28;20585;-68
2022/04/29 13:00:39;;;;;;;2.75;2.20;;;18.70;53.70;;;;;;5090447;28;20229;-69
2022/04/29 13:03:28;;;;;;;4.20;2.03;;;18.70;54.30;;;;;;5091259;28;20680;-69
2022/04/29 13:05:54;;;;;;;3.47;1.60;;;18.80;53.70;;;;;;5090792;28;20532;-68
2022/04/29 13:08:19;;;;;;;3.45;1.65;;;18.80;53.60;;;;;;5091020;28;20247;-67
2022/04/29 13:10:45;;;;;;;4.80;1.83;;;18.80;53.60;;;;;;5091373;28;20538;-67
2022/04/29 13:13:11;;;;;;;2.50;1.50;;;18.90;53.50;;;;;;5090915;28;20601;-67
2022/04/29 13:15:40;;;;;;;3.42;1.50;;;18.90;53.50;;;;;;5091494;28;20185;-69
2022/04/29 13:18:09;;;;;;;2.83;1.50;;;19.00;53.40;;;;;;5091385;28;20174;-69
2022/04/29 13:20:34;;;;;;;3.50;1.83;;;19.10;53.20;;;;;;5090523;28;20177;-67
2022/04/29 13:23:00;;;;;;;5.57;2.30;;;19.20;53.10;;;;;;5091158;28;20481;-67
2022/04/29 13:25:25;;;;;;;1.77;1.67;;;19.30;52.90;;;;;;5091206;28;20660;-69
2022/04/29 13:27:51;;;;;;;3.25;1.80;;;19.40;53.00;;;;;;5093799;28;20177;-65
2022/04/29 13:30:16;;;;;;;4.97;1.90;;;19.50;52.70;;;;;;5094847;28;20221;-68